Ul'yanovsk, Russia
Current Conditions -  °F | °C
As of 12:00 AM on Sunday 23 Nov 2014 (Local Time) from UWLW Reporting Station
Haze Haze  
Wind Chill: 21°   Ceiling: 10000
Heat Index: 21°   Visibility: 3mi
Dew Point: 21°   Wind: 2mph
Humidity: 100%   Direction: 310°NW
Pressure: 30.21"   Gusts: NA
Location:  54.17°N, 48.38°E
Report Text: UWLW 222100Z 31001MPS 5000 BR BKN100 M06/M06 Q1023 20CLRD60NOSIG RMK QFE761
Loading
Personal Weather Stations






























Interactive Weather Map New forecast layout! Learn more

10-Day Weather Forecast

Advertisements
Track Severe Weather on mobile